createdAt,value
2022-12-29T07:01:23.089Z,100013.52
2022-12-29T07:03:51.031Z,100018.30
2022-12-29T07:06:18.710Z,100013.92
2022-12-29T07:08:46.395Z,100013.80
2022-12-29T07:11:14.140Z,100009.45
2022-12-29T07:13:41.959Z,100006.45
2022-12-29T07:16:10.716Z,100008.67
2022-12-29T07:18:38.520Z,100006.55
2022-12-29T07:21:06.686Z,100004.39
2022-12-29T07:23:34.991Z,99999.03
2022-12-29T07:26:08.357Z,99998.75
2022-12-29T07:28:36.901Z,99997.59
2022-12-29T07:31:05.411Z,99993.23
2022-12-29T07:33:33.460Z,99998.42
2022-12-29T07:36:01.697Z,99997.95
2022-12-29T07:38:29.799Z,100007.27
2022-12-29T07:40:59.512Z,100004.26
2022-12-29T07:43:27.302Z,100010.03
2022-12-29T07:45:55.488Z,100010.35
2022-12-29T07:48:23.432Z,100007.67
2022-12-29T07:50:52.851Z,100005.30
2022-12-29T07:53:20.780Z,100006.73
2022-12-29T07:55:48.544Z,100004.41
2022-12-29T07:58:16.251Z,99993.11
2022-12-29T08:00:43.968Z,99993.16
2022-12-29T08:03:11.729Z,99990.84
2022-12-29T08:05:40.333Z,99989.84
2022-12-29T08:08:07.969Z,99987.67
2022-12-29T08:10:35.661Z,99984.28
2022-12-29T08:13:03.321Z,99982.78
2022-12-29T08:15:32.746Z,99984.19
2022-12-29T08:18:00.842Z,99983.55
2022-12-29T08:20:28.835Z,99988.67
2022-12-29T08:22:57.204Z,99988.57
2022-12-29T08:25:24.910Z,99995.06
2022-12-29T08:27:52.655Z,99998.83
2022-12-29T08:30:20.352Z,100002.27
2022-12-29T08:32:48.091Z,100002.13
2022-12-29T08:35:16.027Z,100003.52
2022-12-29T08:37:44.027Z,100006.09
2022-12-29T08:40:12.111Z,100011.92
2022-12-29T08:42:41.092Z,100014.35
2022-12-29T08:45:09.853Z,100014.22
2022-12-29T08:47:37.663Z,100011.73
2022-12-29T08:50:06.330Z,100014.30
2022-12-29T08:52:34.192Z,100012.86
2022-12-29T08:55:02.140Z,100014.27
2022-12-29T08:57:30.118Z,100012.84
2022-12-29T08:59:57.869Z,100005.76
2022-12-29T09:02:25.627Z,100005.46
2022-12-29T09:04:53.591Z,100003.45
2022-12-29T09:07:21.678Z,99997.59
2022-12-29T09:09:49.488Z,99996.64
2022-12-29T09:12:18.522Z,99989.08
2022-12-29T09:14:49.465Z,99984.20
2022-12-29T09:17:35.972Z,99992.20
2022-12-29T09:20:04.811Z,99994.74
2022-12-29T09:22:32.794Z,99989.86
2022-12-29T09:25:00.561Z,99988.54
2022-12-29T09:27:28.525Z,99986.54
2022-12-29T09:29:56.412Z,99987.77
2022-12-29T09:32:24.973Z,99994.75
2022-12-29T09:34:54.258Z,99992.41
2022-12-29T09:37:22.641Z,99988.36
2022-12-29T09:39:54.265Z,99983.98
2022-12-29T09:42:36.434Z,99981.80
2022-12-29T09:45:17.807Z,99977.25
2022-12-29T09:47:46.675Z,99972.69
2022-12-29T09:50:36.597Z,99968.62
2022-12-29T09:53:17.547Z,99967.92
2022-12-29T09:55:55.748Z,99964.39
2022-12-29T09:59:02.439Z,99965.71
2022-12-29T10:01:48.031Z,99961.27
2022-12-29T10:04:15.941Z,99958.58
2022-12-29T10:10:04.748Z,99960.48
2022-12-29T10:12:32.496Z,99959.85
2022-12-29T10:15:06.161Z,99956.30
2022-12-29T10:17:49.106Z,99947.55
2022-12-29T10:20:38.612Z,99943.17
2022-12-29T10:23:06.295Z,99937.80
2022-12-29T10:25:39.793Z,99939.68
2022-12-29T10:28:18.392Z,99935.30
2022-12-29T10:30:48.729Z,99930.91
2022-12-29T10:33:24.675Z,99928.55
2022-12-29T10:35:53.317Z,99927.91
2022-12-29T10:38:40.781Z,99927.95
2022-12-29T10:41:25.505Z,99926.29
2022-12-29T10:43:55.978Z,99928.65
2022-12-29T10:46:30.977Z,99927.82
2022-12-29T10:48:58.864Z,99934.10
2022-12-29T10:51:39.352Z,99919.52
2022-12-29T10:54:18.786Z,99919.36
2022-12-29T10:57:12.620Z,99928.87
2022-12-29T10:59:40.408Z,99923.63
2022-12-29T11:02:08.343Z,99927.36
2022-12-29T11:05:05.118Z,99921.44
2022-12-29T11:07:33.187Z,99925.02
2022-12-29T11:10:30.946Z,99915.52
2022-12-29T11:13:11.506Z,99915.70
2022-12-29T11:15:50.612Z,99917.58
2022-12-29T11:18:21.942Z,99913.84
2022-12-29T11:20:56.413Z,99916.55
2022-12-29T11:23:29.699Z,99918.08
2022-12-29T11:26:20.710Z,99922.98
2022-12-29T11:29:16.942Z,99924.83
2022-12-29T11:31:50.687Z,99924.50
2022-12-29T11:34:48.088Z,99930.95
2022-12-29T11:37:28.335Z,99926.88
2022-12-29T11:40:19.445Z,99920.77
2022-12-29T11:42:49.815Z,99917.58
2022-12-29T11:45:20.719Z,99925.73
2022-12-29T11:47:54.659Z,99926.58
2022-12-29T11:50:30.594Z,99924.89
2022-12-29T11:53:03.237Z,99921.50
2022-12-29T11:55:32.278Z,99914.21
2022-12-29T11:58:03.432Z,99914.39
2022-12-29T12:00:35.903Z,99902.16
2022-12-29T12:03:16.678Z,99908.80
2022-12-29T12:05:53.538Z,99900.31
2022-12-29T12:08:36.714Z,99908.11
2022-12-29T12:11:19.843Z,99903.89
2022-12-29T12:14:12.829Z,99902.37
2022-12-29T12:16:44.704Z,99900.84
2022-12-29T12:19:43.755Z,99907.12
2022-12-29T12:22:17.045Z,99900.51
2022-12-29T12:25:15.996Z,99900.01
2022-12-29T12:28:19.434Z,99900.69
2022-12-29T12:30:53.338Z,99893.73
2022-12-29T12:33:31.247Z,99888.31
2022-12-29T12:36:01.859Z,99885.09
2022-12-29T12:38:54.264Z,99884.59
2022-12-29T12:41:32.458Z,99875.60
2022-12-29T12:44:30.407Z,99876.77
2022-12-29T12:47:19.651Z,99864.90
2022-12-29T12:49:47.364Z,99866.78
2022-12-29T12:52:33.851Z,99863.73
2022-12-29T12:55:03.320Z,99868.64
2022-12-29T12:57:54.827Z,99874.94
2022-12-29T13:00:24.517Z,99874.77
2022-12-29T13:03:09.430Z,99881.89
2022-12-29T13:05:55.661Z,99884.25
2022-12-29T13:08:32.610Z,99889.02
2022-12-29T13:11:29.129Z,99887.82
2022-12-29T13:13:59.563Z,99879.52
2022-12-29T13:16:43.903Z,99892.58
2022-12-29T13:19:25.376Z,99895.12
2022-12-29T13:22:28.848Z,99891.39
2022-12-29T13:25:17.580Z,99886.98
2022-12-29T13:28:03.112Z,99881.21
2022-12-29T13:30:52.441Z,99884.93
2022-12-29T13:33:35.562Z,99886.47
2022-12-29T13:36:10.476Z,99892.23
2022-12-29T13:38:45.435Z,99887.83
2022-12-29T13:41:34.837Z,99890.03
2022-12-29T13:44:05.394Z,99889.17
2022-12-29T13:46:40.168Z,99888.50
2022-12-29T13:49:19.295Z,99891.55
2022-12-29T13:51:53.977Z,99892.06
2022-12-29T13:54:43.260Z,99897.84
2022-12-29T13:57:35.907Z,99903.95
2022-12-29T14:00:12.824Z,99893.92
2022-12-29T14:03:08.118Z,99899.70
2022-12-29T14:05:36.088Z,99899.03
2022-12-29T14:08:18.070Z,99904.29
2022-12-29T14:10:51.479Z,99901.91
2022-12-29T14:13:25.984Z,99897.50
2022-12-29T14:15:59.118Z,99895.98
2022-12-29T14:18:34.303Z,99887.15
2022-12-29T14:21:12.301Z,99891.39
2022-12-29T14:23:43.956Z,99890.88
2022-12-29T14:26:17.182Z,99894.79
2022-12-29T14:28:49.973Z,99891.21
2022-12-29T14:31:17.633Z,99893.42
2022-12-29T14:34:07.679Z,99894.10
2022-12-29T14:36:37.406Z,99894.44
2022-12-29T14:39:28.197Z,99895.63
2022-12-29T14:42:04.324Z,99886.64
2022-12-29T14:44:32.208Z,99882.55
2022-12-29T14:47:07.545Z,99882.22
2022-12-29T14:49:45.564Z,99879.50
2022-12-29T14:52:21.027Z,99881.70
2022-12-29T14:54:52.173Z,99885.44
2022-12-29T14:57:28.397Z,99896.82
2022-12-29T15:00:03.154Z,99903.77
2022-12-29T15:02:39.425Z,99902.25
2022-12-29T15:05:26.302Z,99897.16
2022-12-29T15:07:56.549Z,99899.02
2022-12-29T15:10:26.682Z,99905.98
2022-12-29T15:12:55.882Z,99908.52
2022-12-29T15:15:27.801Z,99904.10
2022-12-29T15:17:55.598Z,99908.67
2022-12-29T15:20:30.397Z,99905.79
2022-12-29T15:23:12.957Z,99901.02
2022-12-29T15:26:03.725Z,99889.64
2022-12-29T15:28:40.982Z,99894.73
2022-12-29T15:31:26.380Z,99888.27
2022-12-29T15:34:11.865Z,99894.89
2022-12-29T15:36:41.776Z,99900.98
2022-12-29T15:39:29.803Z,99901.64
2022-12-29T15:42:45.483Z,99899.45
2022-12-29T15:45:15.311Z,99900.27
2022-12-29T15:47:47.767Z,99903.14
2022-12-29T15:50:27.379Z,99902.77
2022-12-29T15:52:56.062Z,99905.82
2022-12-29T15:55:34.713Z,99899.38
2022-12-29T15:58:07.055Z,99902.91
2022-12-29T16:00:38.400Z,99904.77
2022-12-29T16:03:07.553Z,99904.95
2022-12-29T16:05:37.974Z,99901.70
2022-12-29T16:08:33.711Z,99901.55
2022-12-29T16:11:23.780Z,99902.06
2022-12-29T16:13:53.675Z,99897.33
2022-12-29T16:16:30.106Z,99896.63
2022-12-29T16:18:58.717Z,99900.71
2022-12-29T16:21:34.585Z,99904.80
2022-12-29T16:24:08.153Z,99907.67
2022-12-29T16:26:37.035Z,99910.90
2022-12-29T16:29:09.259Z,99902.94
2022-12-29T16:32:06.591Z,99911.92
2022-12-29T16:34:46.236Z,99916.16
2022-12-29T16:37:35.723Z,99917.52
2022-12-29T16:40:21.431Z,99916.85
2022-12-29T16:42:52.092Z,99922.10
2022-12-29T16:45:20.294Z,99918.23
2022-12-29T16:47:50.897Z,99919.60
2022-12-29T16:50:28.318Z,99918.73
2022-12-29T16:52:56.476Z,99920.12
2022-12-29T16:55:24.956Z,99920.80
2022-12-29T16:57:57.305Z,99926.73
2022-12-29T17:00:27.649Z,99923.17
2022-12-29T17:02:58.809Z,99922.34
2022-12-29T17:05:26.997Z,99928.96
2022-12-29T17:07:56.068Z,99921.66
2022-12-29T17:10:43.726Z,99924.73
2022-12-29T17:13:11.651Z,99924.21
2022-12-29T17:15:39.339Z,99922.70
2022-12-29T17:18:13.866Z,99932.20
2022-12-29T17:20:42.340Z,99921.35
2022-12-29T17:23:19.900Z,99916.77
2022-12-29T17:25:54.357Z,99921.87
2022-12-29T17:28:27.224Z,99921.52
2022-12-29T17:30:59.126Z,99922.72
2022-12-29T17:33:29.076Z,99925.61
2022-12-29T17:35:56.726Z,99928.67
2022-12-29T17:38:32.541Z,99926.64
2022-12-29T17:41:00.605Z,99923.27
2022-12-29T17:43:34.794Z,99915.96
2022-12-29T17:46:07.380Z,99915.97
2022-12-29T17:48:35.565Z,99913.09
2022-12-29T17:51:03.491Z,99914.28
2022-12-29T17:53:31.580Z,99913.95
2022-12-29T17:55:59.952Z,99912.25
2022-12-29T17:58:29.971Z,99914.79
2022-12-29T18:00:59.769Z,99912.59
2022-12-29T18:03:31.116Z,99917.84
2022-12-29T18:05:59.122Z,99923.94
2022-12-29T18:08:29.538Z,99925.79
2022-12-29T18:10:57.834Z,99931.05
2022-12-29T18:13:38.973Z,99927.99
2022-12-29T18:16:12.625Z,99931.39
2022-12-29T18:18:40.556Z,99936.64
2022-12-29T18:21:18.510Z,99940.36
2022-12-29T18:23:47.335Z,99937.64
2022-12-29T18:26:25.514Z,99935.09
2022-12-29T18:28:56.734Z,99934.07
2022-12-29T18:31:27.864Z,99937.45
2022-12-29T18:33:57.659Z,99934.22
2022-12-29T18:36:25.917Z,99932.02
2022-12-29T18:38:54.732Z,99929.30
2022-12-29T18:41:25.841Z,99930.33
2022-12-29T18:43:53.921Z,99932.86
2022-12-29T18:46:23.561Z,99933.70
2022-12-29T18:48:52.854Z,99934.89
2022-12-29T18:51:23.553Z,99930.13
2022-12-29T18:53:55.270Z,99932.16
2022-12-29T18:56:23.835Z,99934.02
2022-12-29T18:58:53.717Z,99930.45
2022-12-29T19:01:24.827Z,99932.65
2022-12-29T19:03:52.987Z,99930.60
2022-12-29T19:06:21.566Z,99929.91
2022-12-29T19:08:49.692Z,99931.42
2022-12-29T19:11:18.058Z,99930.39
2022-12-29T19:13:45.824Z,99930.58
2022-12-29T19:16:20.993Z,99934.48
2022-12-29T19:19:05.752Z,99931.77
2022-12-29T19:21:37.184Z,99934.33
2022-12-29T19:24:06.251Z,99938.42
2022-12-29T19:26:36.787Z,99937.91
2022-12-29T19:29:06.937Z,99939.61
2022-12-29T19:31:35.283Z,99936.90
2022-12-29T19:34:03.606Z,99931.15
2022-12-29T19:36:31.716Z,99932.67
2022-12-29T19:38:59.691Z,99929.98
2022-12-29T19:41:27.688Z,99931.84
2022-12-29T19:43:55.762Z,99936.77
2022-12-29T19:46:24.611Z,99937.98
2022-12-29T19:48:54.986Z,99948.17
2022-12-29T19:51:22.653Z,99941.40
2022-12-29T19:53:50.464Z,99940.89
2022-12-29T19:56:18.560Z,99937.86
2022-12-29T19:58:47.664Z,99940.73
2022-12-29T20:01:19.234Z,99942.60
2022-12-29T20:03:48.644Z,99940.40
2022-12-29T20:06:17.307Z,99934.64
2022-12-29T20:08:45.160Z,99931.41
2022-12-29T20:11:16.089Z,99934.96
2022-12-29T20:13:44.444Z,99936.31
2022-12-29T20:16:15.676Z,99929.52
2022-12-29T20:18:44.011Z,99926.80
2022-12-29T20:21:20.422Z,99932.38
2022-12-29T20:23:50.013Z,99930.86
2022-12-29T20:26:27.319Z,99936.10
2022-12-29T20:28:57.461Z,99936.61
2022-12-29T20:31:32.714Z,99935.56
2022-12-29T20:34:00.578Z,99946.09
2022-12-29T20:36:31.798Z,99947.94
2022-12-29T20:39:04.392Z,99949.30
2022-12-29T20:41:32.769Z,99954.39
2022-12-29T20:44:00.993Z,99946.41
2022-12-29T20:46:35.209Z,99948.95
2022-12-29T20:49:05.518Z,99945.38
2022-12-29T20:51:59.656Z,99945.02
2022-12-29T20:54:22.529Z,99945.36
2022-12-29T20:56:50.687Z,99948.91
2022-12-29T20:59:33.763Z,99950.28
2022-12-29T21:02:01.696Z,99951.98
2022-12-29T21:04:43.640Z,99954.54
2022-12-29T21:07:20.113Z,99951.65
2022-12-29T21:09:48.389Z,99952.17
2022-12-29T21:12:16.131Z,99950.15
2022-12-29T21:14:45.827Z,99946.59
2022-12-29T21:17:13.951Z,99947.62
2022-12-29T21:19:41.730Z,99948.30
2022-12-29T21:22:09.500Z,99946.95
2022-12-29T21:24:38.763Z,99953.75
2022-12-29T21:27:06.691Z,99950.71
2022-12-29T21:29:34.393Z,99954.46
2022-12-29T21:32:06.257Z,99954.63
2022-12-29T21:34:35.756Z,99954.46
2022-12-29T21:37:03.926Z,99956.33
2022-12-29T21:39:31.700Z,99952.42
2022-12-29T21:42:01.744Z,99949.70
2022-12-29T21:44:48.315Z,99952.43
2022-12-29T21:47:16.063Z,99951.91
2022-12-29T21:49:43.807Z,99951.92
2022-12-29T21:52:11.489Z,99953.10
2022-12-29T21:54:57.897Z,99954.96
2022-12-29T21:57:44.207Z,99948.51
2022-12-29T22:00:30.979Z,99950.20
2022-12-29T22:03:22.921Z,99952.91
2022-12-29T22:06:11.337Z,99953.57
2022-12-29T22:08:58.707Z,99954.73
2022-12-29T22:11:45.221Z,99948.80
2022-12-29T22:14:12.974Z,99957.26
2022-12-29T22:16:40.845Z,99953.70
2022-12-29T22:19:10.663Z,99959.28
2022-12-29T22:21:38.603Z,99964.20
2022-12-29T22:24:08.506Z,99969.09
2022-12-29T22:26:36.116Z,99972.14
2022-12-29T22:29:04.057Z,99977.08
2022-12-29T22:31:32.857Z,99979.61
2022-12-29T22:34:03.088Z,99988.44
2022-12-29T22:36:32.451Z,99982.17
2022-12-29T22:39:00.374Z,99993.52
2022-12-29T22:41:28.073Z,99986.59
2022-12-29T22:43:55.789Z,99987.80
2022-12-29T22:46:23.604Z,99980.68
2022-12-29T22:48:52.213Z,99980.33
2022-12-29T22:51:19.970Z,99982.53
2022-12-29T22:53:51.621Z,99983.22
2022-12-29T22:56:19.488Z,99988.48
2022-12-29T22:58:48.513Z,99983.05
2022-12-29T23:01:19.274Z,99993.40
2022-12-29T23:03:47.297Z,99997.98
2022-12-29T23:06:16.756Z,99998.31
2022-12-29T23:08:44.824Z,100009.16
2022-12-29T23:11:13.444Z,100005.59
2022-12-29T23:13:42.318Z,100008.16
2022-12-29T23:16:10.297Z,100004.59
2022-12-29T23:18:38.454Z,100013.42
2022-12-29T23:21:06.634Z,100014.77
2022-12-29T23:23:53.206Z,100013.08
2022-12-29T23:26:24.175Z,100011.88
2022-12-29T23:28:59.509Z,100012.22
2022-12-29T23:31:28.442Z,100011.86
2022-12-29T23:33:56.703Z,100016.59
2022-12-29T23:36:24.831Z,100014.70
2022-12-29T23:38:52.510Z,100016.23
2022-12-29T23:41:20.205Z,100016.89
2022-12-29T23:43:48.200Z,100018.56
2022-12-29T23:46:18.584Z,100023.97
2022-12-29T23:48:46.400Z,100022.45
2022-12-29T23:51:14.483Z,100018.04
2022-12-29T23:53:43.905Z,100016.34
2022-12-29T23:56:14.339Z,100019.55
2022-12-29T23:58:42.107Z,100016.14
